createdAt,value
2018-07-08T00:02:10.589Z,17.71
2018-07-08T00:04:41.354Z,17.62
2018-07-08T00:07:10.185Z,17.54
2018-07-08T00:09:39.375Z,17.48
2018-07-08T00:12:08.045Z,17.45
2018-07-08T00:14:36.701Z,17.41
2018-07-08T00:17:05.361Z,17.37
2018-07-08T00:19:33.992Z,17.33
2018-07-08T00:22:02.650Z,17.28
2018-07-08T00:24:31.682Z,17.25
2018-07-08T00:27:00.887Z,17.22
2018-07-08T00:29:29.791Z,17.18
2018-07-08T00:31:58.781Z,17.15
2018-07-08T00:34:28.441Z,17.10
2018-07-08T00:36:57.672Z,17.06
2018-07-08T00:39:26.637Z,17.03
2018-07-08T00:41:55.745Z,17.00
2018-07-08T00:44:24.763Z,16.96
2018-07-08T00:46:53.744Z,16.91
2018-07-08T00:49:22.535Z,16.86
2018-07-08T00:51:51.431Z,16.82
2018-07-08T00:54:20.840Z,16.77
2018-07-08T00:56:52.105Z,17.36
2018-07-08T00:59:21.398Z,16.90
2018-07-08T01:01:50.285Z,16.77
2018-07-08T01:04:22.774Z,16.69
2018-07-08T01:06:51.889Z,16.64
2018-07-08T01:09:20.760Z,16.59
2018-07-08T01:11:49.944Z,16.54
2018-07-08T01:14:19.044Z,16.49
2018-07-08T01:16:48.530Z,16.45
2018-07-08T01:19:17.543Z,16.41
2018-07-08T01:21:49.224Z,16.37
2018-07-08T01:24:18.377Z,16.98
2018-07-08T01:26:47.304Z,17.13
2018-07-08T01:29:16.064Z,16.65
2018-07-08T01:31:45.145Z,16.52
2018-07-08T01:34:14.063Z,17.06
2018-07-08T01:36:42.896Z,16.55
2018-07-08T01:39:11.864Z,16.39
2018-07-08T01:41:40.701Z,16.32
2018-07-08T01:44:09.665Z,16.23
2018-07-08T01:46:38.463Z,16.82
2018-07-08T01:49:07.383Z,16.34
2018-07-08T01:51:36.419Z,16.86
2018-07-08T01:54:05.675Z,16.34
2018-07-08T01:56:34.504Z,16.17
2018-07-08T01:59:03.049Z,16.08
2018-07-08T02:01:31.708Z,16.01
2018-07-08T02:04:00.344Z,16.59
2018-07-08T02:06:29.020Z,16.10
2018-07-08T02:08:57.631Z,15.97
2018-07-08T02:11:26.285Z,15.90
2018-07-08T02:13:54.919Z,15.82
2018-07-08T02:16:23.598Z,15.77
2018-07-08T02:23:03.917Z,15.71
2018-07-08T02:25:32.548Z,15.64
2018-07-08T02:28:01.231Z,15.55
2018-07-08T02:30:29.846Z,16.11
2018-07-08T02:32:58.500Z,15.66
2018-07-08T02:35:27.132Z,15.53
2018-07-08T02:37:55.789Z,15.47
2018-07-08T02:40:24.424Z,15.41
2018-07-08T02:42:53.098Z,15.34
2018-07-08T02:45:21.712Z,15.30
2018-07-08T02:47:50.381Z,15.24
2018-07-08T02:50:18.997Z,15.84
2018-07-08T02:52:47.651Z,15.39
2018-07-08T02:55:16.270Z,15.92
2018-07-08T02:57:44.930Z,15.43
2018-07-08T03:00:13.542Z,15.33
2018-07-08T03:02:42.196Z,15.26
2018-07-08T03:05:10.810Z,15.21
2018-07-08T03:07:39.471Z,15.81
2018-07-08T03:10:10.326Z,15.35
2018-07-08T03:12:38.982Z,15.24
2018-07-08T03:15:07.596Z,15.19
2018-07-08T03:17:36.271Z,15.13
2018-07-08T03:20:04.882Z,15.03
2018-07-08T03:22:33.545Z,15.00
2018-07-08T03:25:02.176Z,15.64
2018-07-08T03:27:30.831Z,15.18
2018-07-08T03:29:59.465Z,15.12
2018-07-08T03:32:28.118Z,15.74
2018-07-08T03:34:56.753Z,15.27
2018-07-08T03:37:25.415Z,15.19
2018-07-08T03:39:54.027Z,15.87
2018-07-08T03:42:22.690Z,15.39
2018-07-08T03:44:54.170Z,15.33
2018-07-08T03:47:22.810Z,15.28
2018-07-08T03:49:51.434Z,15.30
2018-07-08T03:52:20.083Z,15.31
2018-07-08T03:54:48.719Z,15.29
2018-07-08T03:57:17.375Z,15.32
2018-07-08T03:59:46.029Z,15.34
2018-07-08T04:02:14.670Z,15.38
2018-07-08T04:04:43.301Z,15.42
2018-07-08T04:07:11.961Z,15.51
2018-07-08T04:09:43.587Z,15.58
2018-07-08T04:12:13.234Z,15.64
2018-07-08T04:14:41.862Z,15.70
2018-07-08T04:17:10.817Z,16.49
2018-07-08T04:19:39.379Z,16.03
2018-07-08T04:22:08.331Z,15.98
2018-07-08T04:24:37.713Z,15.98
2018-07-08T04:27:06.575Z,16.04
2018-07-08T04:29:35.563Z,16.95
2018-07-08T04:32:04.832Z,16.57
2018-07-08T04:34:33.788Z,16.52
2018-07-08T04:37:02.457Z,16.55
2018-07-08T04:39:32.281Z,17.51
2018-07-08T04:42:01.471Z,17.17
2018-07-08T04:44:30.175Z,17.19
2018-07-08T04:46:58.870Z,17.27
2018-07-08T04:49:28.023Z,17.41
2018-07-08T04:51:57.281Z,18.33
2018-07-08T04:54:26.652Z,17.80
2018-07-08T04:56:55.569Z,17.84
2018-07-08T04:59:24.196Z,18.87
2018-07-08T05:01:52.828Z,18.40
2018-07-08T05:04:21.484Z,19.29
2018-07-08T05:06:50.114Z,18.69
2018-07-08T05:09:18.807Z,18.58
2018-07-08T05:11:47.423Z,18.67
2018-07-08T05:14:16.097Z,18.71
2018-07-08T05:16:44.725Z,18.80
2018-07-08T05:19:13.403Z,18.88
2018-07-08T05:21:42.035Z,18.95
2018-07-08T05:24:10.732Z,19.09
2018-07-08T05:26:39.362Z,19.13
2018-07-08T05:29:08.021Z,20.19
2018-07-08T05:31:36.648Z,19.43
2018-07-08T05:34:05.303Z,19.31
2018-07-08T05:36:33.934Z,19.29
2018-07-08T05:39:02.592Z,19.30
2018-07-08T05:41:31.224Z,19.22
2018-07-08T05:43:59.964Z,19.26
2018-07-08T05:46:28.517Z,19.23
2018-07-08T05:48:57.189Z,19.33
2018-07-08T05:51:25.808Z,19.45
2018-07-08T05:53:54.828Z,19.47
2018-07-08T05:56:23.457Z,19.46
2018-07-08T05:58:52.160Z,19.33
2018-07-08T06:01:20.789Z,19.13
2018-07-08T06:03:49.446Z,19.10
2018-07-08T06:06:18.081Z,19.19
2018-07-08T06:08:46.743Z,19.26
2018-07-08T06:11:15.369Z,19.43
2018-07-08T06:13:44.076Z,19.53
2018-07-08T06:16:12.710Z,19.61
2018-07-08T06:18:44.296Z,19.63
2018-07-08T06:21:12.907Z,19.85
2018-07-08T06:23:41.562Z,20.01
2018-07-08T06:26:10.223Z,20.19
2018-07-08T06:28:38.860Z,21.27
2018-07-08T06:31:07.490Z,20.41
2018-07-08T06:33:36.147Z,21.36
2018-07-08T06:36:04.779Z,20.79
2018-07-08T06:38:33.470Z,20.87
2018-07-08T06:41:02.069Z,21.13
2018-07-08T06:43:30.738Z,22.30
2018-07-08T06:45:59.388Z,22.44
2018-07-08T06:48:28.069Z,21.43
2018-07-08T06:50:56.714Z,21.19
2018-07-08T06:53:25.382Z,20.93
2018-07-08T06:55:54.019Z,20.81
2018-07-08T06:58:22.681Z,20.76
2018-07-08T07:00:51.297Z,20.64
2018-07-08T07:03:19.974Z,20.52
2018-07-08T07:05:48.594Z,21.48
2018-07-08T07:08:17.219Z,20.63
2018-07-08T07:10:45.878Z,20.47
2018-07-08T07:13:14.580Z,20.48
2018-07-08T07:15:43.181Z,20.47
2018-07-08T07:18:11.825Z,20.53
2018-07-08T07:20:41.493Z,20.61
2018-07-08T07:23:13.621Z,20.70
2018-07-08T07:25:45.842Z,21.76
2018-07-08T07:28:14.473Z,20.82
2018-07-08T07:30:43.132Z,20.74
2018-07-08T07:33:12.186Z,20.89
2018-07-08T07:35:41.308Z,20.99
2018-07-08T07:38:10.238Z,20.99
2018-07-08T07:40:42.373Z,20.81
2018-07-08T07:43:12.864Z,20.67
2018-07-08T07:45:42.423Z,20.64
2018-07-08T07:48:15.948Z,20.57
2018-07-08T07:50:50.492Z,20.64
2018-07-08T07:53:20.291Z,21.74
2018-07-08T07:55:49.260Z,21.94
2018-07-08T07:58:26.264Z,21.14
2018-07-08T08:01:00.724Z,21.06
2018-07-08T08:03:31.996Z,21.09
2018-07-08T08:06:02.731Z,21.20
2018-07-08T08:08:31.668Z,22.32
2018-07-08T08:11:00.777Z,21.69
2018-07-08T08:13:29.736Z,21.75
2018-07-08T08:15:58.402Z,21.83
2018-07-08T08:18:27.028Z,22.02
2018-07-08T08:20:55.751Z,22.05
2018-07-08T08:23:24.336Z,22.14
2018-07-08T08:25:53.013Z,22.42
2018-07-08T08:28:22.053Z,22.63
2018-07-08T08:30:50.708Z,24.06
2018-07-08T08:33:19.334Z,23.43
2018-07-08T08:35:48.023Z,24.74
2018-07-08T08:38:16.687Z,23.75
2018-07-08T08:40:45.292Z,23.58
2018-07-08T08:43:13.915Z,23.65
2018-07-08T08:45:42.569Z,23.70
2018-07-08T08:48:11.225Z,23.63
2018-07-08T08:50:40.577Z,25.03
2018-07-08T08:53:10.080Z,24.12
2018-07-08T08:55:38.742Z,24.18
2018-07-08T08:58:07.371Z,25.60
2018-07-08T09:00:36.033Z,24.86
2018-07-08T09:03:04.675Z,26.09
2018-07-08T09:05:33.334Z,25.17
2018-07-08T09:08:01.954Z,25.12
2018-07-08T09:10:30.603Z,25.23
2018-07-08T09:12:59.224Z,25.32
2018-07-08T09:15:27.878Z,25.67
2018-07-08T09:17:56.489Z,27.28
2018-07-08T09:20:25.170Z,26.28
2018-07-08T09:22:53.825Z,26.13
2018-07-08T09:25:22.476Z,25.81
2018-07-08T09:27:51.105Z,25.74
2018-07-08T09:30:19.758Z,25.72
2018-07-08T09:32:48.395Z,27.09
2018-07-08T09:35:17.050Z,25.95
2018-07-08T09:37:45.714Z,26.07
2018-07-08T09:40:14.368Z,26.11
2018-07-08T09:42:42.936Z,25.94
2018-07-08T09:45:14.698Z,25.68
2018-07-08T09:47:43.332Z,25.71
2018-07-08T09:50:11.988Z,25.64
2018-07-08T09:52:40.736Z,25.78
2018-07-08T09:55:09.284Z,26.15
2018-07-08T09:57:37.910Z,26.54
2018-07-08T10:00:08.079Z,26.72
2018-07-08T10:02:37.694Z,28.08
2018-07-08T10:05:07.094Z,27.24
2018-07-08T10:07:36.746Z,26.90
2018-07-08T10:10:08.298Z,27.06
2018-07-08T10:12:37.488Z,27.23
2018-07-08T10:15:07.214Z,28.80
2018-07-08T10:17:38.711Z,27.73
2018-07-08T10:20:10.754Z,27.60
2018-07-08T10:22:40.690Z,27.55
2018-07-08T10:25:09.899Z,27.54
2018-07-08T10:27:40.094Z,27.40
2018-07-08T10:30:09.910Z,27.40
2018-07-08T10:32:38.742Z,28.93
2018-07-08T10:35:07.962Z,27.86
2018-07-08T10:37:39.018Z,27.65
2018-07-08T10:40:12.461Z,27.54
2018-07-08T10:42:41.110Z,27.32
2018-07-08T10:45:10.324Z,27.18
2018-07-08T10:47:40.295Z,27.07
2018-07-08T10:50:12.253Z,26.97
2018-07-08T10:52:41.825Z,28.30
2018-07-08T10:55:10.473Z,27.22
2018-07-08T10:57:39.521Z,26.96
2018-07-08T11:00:13.446Z,28.22
2018-07-08T11:05:44.507Z,27.48
2018-07-08T11:08:25.193Z,27.61
2018-07-08T11:10:56.290Z,27.77
2018-07-08T11:13:26.433Z,28.03
2018-07-08T11:15:55.128Z,28.25
2018-07-08T11:18:24.328Z,28.27
2018-07-08T11:20:53.624Z,28.40
2018-07-08T11:23:25.638Z,28.35
2018-07-08T11:25:57.787Z,28.74
2018-07-08T11:28:27.990Z,28.76
2018-07-08T11:30:57.651Z,29.02
2018-07-08T11:33:29.371Z,29.60
2018-07-08T11:36:00.083Z,30.10
2018-07-08T11:38:29.335Z,30.14
2018-07-08T11:40:58.004Z,30.34
2018-07-08T11:43:27.110Z,30.11
2018-07-08T11:45:57.148Z,31.30
2018-07-08T11:48:26.623Z,30.16
2018-07-08T11:50:55.755Z,30.15
2018-07-08T11:53:24.535Z,31.61
2018-07-08T11:55:57.206Z,30.31
2018-07-08T11:58:26.666Z,30.18
2018-07-08T12:00:56.578Z,30.34
2018-07-08T12:03:25.739Z,30.50
2018-07-08T12:05:54.684Z,30.84
2018-07-08T12:08:23.262Z,32.52
2018-07-08T12:10:52.155Z,31.39
2018-07-08T12:13:20.981Z,31.13
2018-07-08T12:15:49.800Z,31.02
2018-07-08T12:18:21.367Z,32.25
2018-07-08T12:20:50.278Z,32.54
2018-07-08T12:23:19.406Z,32.81
2018-07-08T12:25:48.753Z,33.13
2018-07-08T12:28:17.509Z,32.52
2018-07-08T12:30:46.147Z,32.42
2018-07-08T12:33:14.844Z,31.93
2018-07-08T12:35:43.466Z,31.57
2018-07-08T12:38:12.129Z,31.10
2018-07-08T12:40:41.047Z,30.73
2018-07-08T12:43:14.480Z,30.33
2018-07-08T12:45:40.591Z,30.37
2018-07-08T12:48:09.234Z,30.96
2018-07-08T12:50:38.046Z,31.23
2018-07-08T12:53:06.762Z,31.36
2018-07-08T12:55:35.523Z,31.47
2018-07-08T12:58:04.228Z,30.90
2018-07-08T13:00:32.909Z,30.84
2018-07-08T13:03:01.553Z,30.63
2018-07-08T13:05:30.131Z,30.61
2018-07-08T13:07:58.774Z,30.47
2018-07-08T13:10:27.683Z,30.53
2018-07-08T13:12:56.457Z,30.36
2018-07-08T13:15:26.011Z,31.58
2018-07-08T13:17:54.689Z,30.59
2018-07-08T13:20:23.351Z,30.34
2018-07-08T13:23:02.521Z,30.12
2018-07-08T13:25:32.678Z,30.61
2018-07-08T13:28:08.955Z,30.93
2018-07-08T13:30:37.591Z,32.31
2018-07-08T13:33:08.270Z,31.44
2018-07-08T13:35:36.909Z,32.37
2018-07-08T13:38:05.938Z,31.35
2018-07-08T13:40:36.776Z,30.75
2018-07-08T13:43:08.163Z,30.36
2018-07-08T13:45:36.844Z,30.05
2018-07-08T13:48:18.117Z,31.28
2018-07-08T13:50:49.261Z,30.25
2018-07-08T13:53:18.482Z,30.29
2018-07-08T13:55:47.281Z,30.39
2018-07-08T13:58:16.102Z,30.54
2018-07-08T14:00:45.683Z,32.38
2018-07-08T14:03:14.549Z,32.10
2018-07-08T14:05:43.188Z,32.15
2018-07-08T14:08:11.844Z,32.17
2018-07-08T14:10:42.201Z,32.15
2018-07-08T14:13:11.773Z,32.05
2018-07-08T14:15:41.061Z,32.26
2018-07-08T14:18:10.620Z,32.93
2018-07-08T14:20:40.619Z,33.37
2018-07-08T14:23:09.145Z,33.28
2018-07-08T14:25:37.892Z,33.01
2018-07-08T14:28:06.963Z,32.87
2018-07-08T14:30:35.996Z,32.39
2018-07-08T14:33:04.682Z,32.21
2018-07-08T14:35:34.787Z,32.16
2018-07-08T14:38:03.503Z,33.42
2018-07-08T14:40:32.183Z,32.39
2018-07-08T14:43:01.052Z,33.45
2018-07-08T14:45:29.819Z,32.50
2018-07-08T14:47:59.079Z,32.43
2018-07-08T14:50:27.998Z,33.79
2018-07-08T14:52:57.221Z,32.81
2018-07-08T14:55:26.331Z,32.16
2018-07-08T14:57:55.235Z,31.84
2018-07-08T15:00:24.269Z,32.83
2018-07-08T15:02:53.599Z,32.80
2018-07-08T15:05:22.720Z,31.78
2018-07-08T15:07:52.030Z,31.55
2018-07-08T15:10:21.123Z,31.42
2018-07-08T15:12:50.106Z,31.16
2018-07-08T15:15:19.185Z,31.11
2018-07-08T15:17:48.055Z,31.08
2018-07-08T15:20:16.772Z,31.06
2018-07-08T15:22:48.556Z,31.14
2018-07-08T15:25:17.515Z,31.10
2018-07-08T15:27:46.344Z,31.04
2018-07-08T15:30:15.357Z,31.05
2018-07-08T15:32:45.540Z,31.23
2018-07-08T15:35:16.824Z,31.29
2018-07-08T15:37:45.960Z,31.43
2018-07-08T15:40:15.024Z,31.53
2018-07-08T15:42:43.985Z,31.92
2018-07-08T15:45:12.713Z,32.85
2018-07-08T15:47:44.513Z,35.16
2018-07-08T15:50:13.371Z,34.48
2018-07-08T15:52:42.210Z,34.01
2018-07-08T15:55:10.774Z,33.62
2018-07-08T15:57:40.295Z,33.63
2018-07-08T16:00:09.422Z,33.92
2018-07-08T16:02:38.187Z,34.42
2018-07-08T16:05:08.812Z,35.22
2018-07-08T16:07:47.467Z,35.38
2018-07-08T16:10:20.017Z,35.22
2018-07-08T16:12:53.703Z,34.49
2018-07-08T16:15:22.365Z,34.00
2018-07-08T16:17:51.435Z,33.99
2018-07-08T16:20:23.795Z,34.17
2018-07-08T16:22:53.603Z,33.76
2018-07-08T16:25:28.547Z,33.67
2018-07-08T16:27:57.438Z,34.15
2018-07-08T16:30:26.464Z,34.56
2018-07-08T16:32:55.442Z,35.00
2018-07-08T16:35:24.562Z,35.12
2018-07-08T16:37:53.103Z,35.29
2018-07-08T16:40:21.732Z,35.21
2018-07-08T16:42:50.492Z,35.18
2018-07-08T16:45:19.122Z,36.66
2018-07-08T16:47:47.753Z,35.27
2018-07-08T16:50:16.448Z,36.53
2018-07-08T16:52:45.434Z,35.76
2018-07-08T16:55:13.977Z,36.05
2018-07-08T16:57:42.955Z,36.26
2018-07-08T17:00:11.677Z,36.63
2018-07-08T17:02:40.291Z,36.62
2018-07-08T17:05:08.945Z,36.47
2018-07-08T17:07:37.567Z,36.76
2018-07-08T17:10:06.239Z,36.52
2018-07-08T17:12:34.935Z,36.12
2018-07-08T17:15:03.580Z,35.80
2018-07-08T17:17:32.209Z,35.85
2018-07-08T17:20:00.862Z,36.15
2018-07-08T17:22:29.786Z,36.11
2018-07-08T17:25:06.008Z,37.30
2018-07-08T17:27:40.965Z,35.88
2018-07-08T17:30:15.980Z,36.23
2018-07-08T17:32:49.214Z,38.35
2018-07-08T17:35:24.077Z,37.18
2018-07-08T17:37:56.750Z,36.82
2018-07-08T17:40:31.893Z,36.62
2018-07-08T17:43:05.048Z,36.49
2018-07-08T17:45:41.813Z,35.48
2018-07-08T17:48:13.512Z,34.40
2018-07-08T17:50:43.694Z,33.60
2018-07-08T17:53:13.331Z,32.92
2018-07-08T17:55:43.105Z,32.42
2018-07-08T17:58:12.137Z,31.92
2018-07-08T18:00:42.911Z,31.37
2018-07-08T18:03:12.538Z,30.96
2018-07-08T18:05:45.431Z,30.63
2018-07-08T18:08:16.624Z,30.32
2018-07-08T18:10:49.466Z,29.99
2018-07-08T18:13:18.767Z,29.72
2018-07-08T18:15:47.481Z,29.58
2018-07-08T18:18:17.514Z,29.48
2018-07-08T18:20:47.061Z,29.36
2018-07-08T18:23:15.722Z,29.20
2018-07-08T18:25:44.367Z,28.99
2018-07-08T18:28:12.978Z,28.82
2018-07-08T18:30:41.629Z,28.64
2018-07-08T18:33:10.262Z,29.40
2018-07-08T18:35:38.921Z,28.58
2018-07-08T18:38:07.553Z,28.30
2018-07-08T18:40:37.853Z,28.10
2018-07-08T18:43:06.525Z,27.94
2018-07-08T18:45:35.505Z,28.63
2018-07-08T18:48:04.280Z,27.90
2018-07-08T18:50:33.426Z,27.68
2018-07-08T18:53:02.394Z,27.49
2018-07-08T18:55:30.982Z,27.32
2018-07-08T18:57:59.533Z,27.18
2018-07-08T19:00:29.079Z,27.02
2018-07-08T19:02:58.609Z,26.87
2018-07-08T19:05:27.447Z,26.72
2018-07-08T19:07:56.415Z,26.58
2018-07-08T19:10:25.561Z,26.44
2018-07-08T19:12:54.501Z,26.30
2018-07-08T19:15:23.425Z,26.18
2018-07-08T19:17:52.313Z,26.04
2018-07-08T19:20:20.985Z,25.90
2018-07-08T19:22:49.607Z,25.78
2018-07-08T19:25:18.269Z,25.67
2018-07-08T19:27:46.889Z,25.61
2018-07-08T19:30:15.558Z,25.55
2018-07-08T19:32:44.169Z,25.45
2018-07-08T19:35:12.826Z,25.35
2018-07-08T19:37:41.457Z,25.99
2018-07-08T19:40:10.119Z,25.42
2018-07-08T19:42:38.744Z,25.95
2018-07-08T19:45:07.437Z,25.38
2018-07-08T19:47:36.125Z,25.88
2018-07-08T19:50:04.775Z,25.88
2018-07-08T19:52:33.384Z,25.24
2018-07-08T19:55:02.073Z,25.04
2018-07-08T19:57:31.494Z,24.92
2018-07-08T20:00:00.181Z,25.46
2018-07-08T20:02:29.793Z,24.89
2018-07-08T20:05:00.414Z,24.70
2018-07-08T20:07:29.557Z,24.57
2018-07-08T20:09:58.297Z,24.48
2018-07-08T20:12:30.659Z,24.34
2018-07-08T20:14:59.352Z,24.22
2018-07-08T20:17:27.983Z,24.12
2018-07-08T20:19:56.642Z,24.01
2018-07-08T20:22:25.273Z,23.92
2018-07-08T20:24:54.890Z,24.52
2018-07-08T20:27:23.520Z,23.94
2018-07-08T20:29:53.153Z,23.77
2018-07-08T20:32:21.992Z,23.65
2018-07-08T20:34:50.697Z,23.55
2018-07-08T20:37:19.314Z,23.47
2018-07-08T20:39:47.986Z,23.37
2018-07-08T20:42:16.643Z,23.31
2018-07-08T20:44:45.501Z,23.22
2018-07-08T20:47:14.134Z,23.13
2018-07-08T20:49:42.765Z,23.03
2018-07-08T20:52:12.217Z,23.64
2018-07-08T20:54:41.289Z,23.16
2018-07-08T20:57:10.722Z,23.04
2018-07-08T20:59:39.356Z,22.99
2018-07-08T21:02:08.818Z,22.93
2018-07-08T21:04:39.608Z,23.54
2018-07-08T21:07:16.733Z,23.03
2018-07-08T21:09:49.150Z,22.89
2018-07-08T21:12:37.374Z,23.49
2018-07-08T21:15:17.053Z,22.97
2018-07-08T21:17:47.192Z,22.84
2018-07-08T21:20:16.519Z,23.40
2018-07-08T21:22:45.445Z,22.93
2018-07-08T21:25:14.258Z,22.77
2018-07-08T21:27:43.977Z,22.68
2018-07-08T21:30:13.304Z,22.60
2018-07-08T21:32:47.701Z,22.53
2018-07-08T21:35:26.363Z,22.50
2018-07-08T21:40:45.936Z,22.40
2018-07-08T21:43:19.144Z,22.36
2018-07-08T21:45:48.670Z,22.33
2018-07-08T21:48:24.634Z,22.94
2018-07-08T21:50:58.063Z,22.43
2018-07-08T21:53:28.268Z,22.96
2018-07-08T21:58:47.396Z,22.32
2018-07-08T22:01:18.054Z,22.27
2018-07-08T22:03:47.408Z,22.21
2018-07-08T22:06:17.025Z,22.15
2018-07-08T22:08:45.912Z,22.72
2018-07-08T22:11:16.150Z,22.24
2018-07-08T22:13:45.191Z,22.13
2018-07-08T22:16:14.079Z,22.05
2018-07-08T22:18:43.182Z,21.99
2018-07-08T22:21:12.202Z,22.60
2018-07-08T22:23:41.003Z,22.73
2018-07-08T22:26:10.052Z,22.22
2018-07-08T22:28:38.837Z,22.06
2018-07-08T22:31:07.850Z,21.95
2018-07-08T22:33:36.439Z,22.52
2018-07-08T22:36:05.106Z,21.99
2018-07-08T22:38:35.430Z,22.48
2018-07-08T22:41:04.136Z,22.57
2018-07-08T22:43:33.471Z,21.95
2018-07-08T22:46:04.751Z,21.77
2018-07-08T22:48:35.172Z,21.66
2018-07-08T22:51:06.475Z,21.54
2018-07-08T22:53:45.021Z,21.44
2018-07-08T22:56:14.682Z,21.34
2018-07-08T22:58:43.373Z,21.27
2018-07-08T23:01:33.805Z,21.21
2018-07-08T23:04:02.517Z,21.80
2018-07-08T23:06:31.790Z,21.27
2018-07-08T23:09:01.575Z,21.12
2018-07-08T23:11:30.390Z,21.00
2018-07-08T23:13:58.956Z,20.93
2018-07-08T23:16:28.223Z,20.87
2018-07-08T23:18:56.773Z,20.80
2018-07-08T23:21:25.409Z,21.39
2018-07-08T23:23:54.044Z,20.89
2018-07-08T23:26:22.700Z,20.77
2018-07-08T23:28:51.758Z,20.68
2018-07-08T23:31:20.581Z,20.61
2018-07-08T23:33:49.298Z,20.54
2018-07-08T23:36:17.991Z,20.49
2018-07-08T23:38:48.326Z,20.45
2018-07-08T23:41:18.199Z,20.39
2018-07-08T23:43:48.427Z,20.34
2018-07-08T23:46:17.667Z,20.29
2018-07-08T23:48:46.453Z,20.91
2018-07-08T23:51:15.845Z,20.41
2018-07-08T23:53:48.271Z,20.28
2018-07-08T23:56:19.248Z,20.20
2018-07-08T23:58:47.888Z,20.14
